Arcola, Louisiana
Current Conditions -  °F | °C
As of 3:35 PM on Friday 31 Oct 2014 (Local Time) from KHDC Reporting Station
Clear Clear  
Wind Chill: 75°   Ceiling: Unl
Heat Index: 75°   Visibility: 10mi
Dew Point: 41°   Wind: 14mph
Humidity: 29%   Direction: 330°NNW
Pressure: 30.03"   Gusts: 21mph
Location:  30.7896°N, 90.5314°W
Report Text: KHDC 312035Z AUTO 33012G18KT 10SM CLR 24/05 A3003 RMK AO2
Loading
Personal Weather Stations






























Interactive Weather Map
Tropical Storm Tracking
New forecast layout! Learn more

10-Day Weather Forecast

Advertisements
Track Severe Weather on mobile